Pattonville, Texas
Current Conditions -  °F | °C
As of 7:15 AM on Thursday 27 Nov 2014 (Local Time) from KPRX Reporting Station
Clear Clear  
Wind Chill: 30°   Ceiling: Unl
Heat Index: 36°   Visibility: 10mi
Dew Point: 25°   Wind: 7mph
Humidity: 65%   Direction: 360°N
Pressure: 30.53"   Gusts: NA
Location:  33.58°N, 95.39°W
Report Text: KPRX 271315Z 36006KT 10SM CLR 02/M04 A3053 RMK AO1
Loading
Personal Weather Stations






























Interactive Weather Map New forecast layout! Learn more

10-Day Weather Forecast

Advertisements
Track Severe Weather on mobile